Main page
METAR-TAF:

METAR-TAF

Airports :

Palm Beach International Airport

West Palm Beach, Florida, United States

latitude: 26-41-05N, longitude: 080-05-58W, elevation: 16 ft

Current weather observation

The report was made 55 minutes ago, at 20:53 UTC
Wind 9 mph from the Southeast
Temperature 81°F
Humidity 62%
Pressure 30.18 in. Hg
Visibility: 10 miles
Scattered clouds at a height of 2700 ft

METAR: KPBI 272053Z 13008KT 10SM SCT027 27/19 A3018 RMK AO2 SLP218 T02720194 56012

Time: 16:48 (21:48 UTC)

Forecast

The report was made 57 minutes ago, at 20:51 UTC
Forecast valid from 27 at 21 UTC to 28 at 18 UTC
Wind 17 mph from the Southeast
Visibility: 6 miles
Scattered clouds at a height of 3000 ft
From 28 at 0300 UTC
Wind 15 mph from the East/Southeast
Visibility: 6 miles
Few clouds at a height of 2000 ft

TAF: KPBI 272051Z 2721/2818 13015KT P6SM SCT030 FM280300 11013KT P6SM FEW020

Weather observations and forecasts of more than 4000 airports (METAR and TAF reports).

The available stations are represented by yellow and red dots on the map.

Hover mouse over dot to see the name of the station.

Then click to see weather observations and forecasts.

To change the map : click on the green buttons with a black cross to zoom in, on the green button with a dash to zoom out, or on the green arrows for adjacent maps.


METAR-TAF: